• Join FlightAware (Why Join?)
  • Login
  • US Flag 
01:54PM EDT


 

Airport Tracker/Info


-or-


 

Live Flight TrackerFlight Track Log ✈ SWA16 ✈ 24-Apr-2013 ✈ KLAS - KDEN

Flight Track Log - Related Links

Times and Time Zones

All times are in EDT time to prevent confusion due to time zone crossing. See the SWA16 flight status page for this flight to view local times or setup timezone preferences in your user account.

Time Position Orientation Groundspeed Altitude Reporting Facility
EDT Latitude Longitude Course Direction KTS MPH feet Rate Location/Type
05:13PM 36.1250 -115.1253 46° Northeast 204 235 4,500  Level Los Angeles Center
05:14PM 36.1347 -115.0503 81° East 250 288 6,900 2,820 Climbing Los Angeles Center
05:14PM 36.1369 -115.0283 83° East 238 274 7,800 3,600 Climbing Los Angeles Center
05:15PM 36.1458 -114.9533 82° East 283 326 10,600 3,240 Climbing Los Angeles Center
05:15PM 36.1492 -114.9328 79° East 270 311 11,200 2,220 Climbing Los Angeles Center
05:16PM 36.1586 -114.8192 84° East 322 371 13,500 2,460 Climbing Los Angeles Center
05:17PM 36.1869 -114.6969 74° East 368 423 16,400 2,580 Climbing Los Angeles Center
05:19PM 36.1889 -114.5614 89° East 396 456 18,900 1,920 Climbing Los Angeles Center
05:20PM 36.1889 -114.3914 90° East 411 473 20,400 1,860 Climbing Los Angeles Center
05:21PM 36.1919 -114.2439 88° East 426 490 22,800 2,340 Climbing Los Angeles Center
05:22PM 36.2106 -114.0914 81° East 444 511 25,300 1,980 Climbing Los Angeles Center
05:23PM 36.2294 -113.9339 81° East 459 528 26,900 1,380 Climbing Los Angeles Center
05:24PM 36.2489 -113.7694 82° East 478 550 28,500 1,500 Climbing Los Angeles Center
05:25PM 36.2731 -113.5656 82° East 497 572 30,400 1,860 Climbing Los Angeles Center
05:26PM 36.2969 -113.3586 82° East 506 582 32,400 1,620 Climbing Los Angeles Center
05:27PM 36.3214 -113.1986 79° East 508 585 33,800 1,260 Climbing Los Angeles Center
05:28PM 36.3814 -113.0400 65° Northeast 510 587 35,100 1,380 Climbing Los Angeles Center
05:29PM 36.4483 -112.8875 61° Northeast 507 583 36,700 1,560 Climbing Los Angeles Center
05:30PM 36.5225 -112.7019 64° Northeast 503 579 38,400 1,020 Climbing Los Angeles Center
05:31PM 36.5839 -112.5483 64° Northeast 500 575 38,900 240 Climbing Los Angeles Center
05:32PM 36.6489 -112.3922 63° Northeast 508 585 39,000  Climbing Los Angeles Center
05:33PM 36.7122 -112.2331 64° Northeast 515 593 39,000  Level Los Angeles Center
05:34PM 36.7775 -112.0742 63° Northeast 517 595 39,000  Level Los Angeles Center
05:35PM 36.8411 -111.9144 64° Northeast 519 597 39,000  Level Denver Center
05:36PM 36.9167 -111.7231 64° Northeast 517 595 39,000  Level Denver Center
05:37PM 36.9803 -111.5644 63° Northeast 515 593 39,000  Level Denver Center
05:39PM 37.0547 -111.3758 64° Northeast 509 586 39,000  Level Denver Center
05:40PM 37.1161 -111.2178 64° Northeast 508 585 39,000  Level Denver Center
05:41PM 37.1642 -111.0917 64° Northeast 506 582 39,000  Level Denver Center
05:42PM 37.2381 -110.9025 64° Northeast 504 580 39,000  Level Denver Center
05:43PM 37.3117 -110.7125 64° Northeast 506 582 39,000  Level Denver Center
05:44PM 37.3719 -110.5550 64° Northeast 503 579 39,000  Level Denver Center
05:45PM 37.4328 -110.3967 64° Northeast 503 579 39,000  Level Denver Center
05:46PM 37.4936 -110.2347 65° Northeast 503 579 39,000  Level Denver Center
05:47PM 37.5608 -110.0578 64° Northeast 501 577 39,000  Level Denver Center
05:48PM 37.6178 -109.9064 65° Northeast 499 574 39,000  Level Denver Center
05:49PM 37.6844 -109.7292 65° Northeast 498 573 39,000  Level Denver Center
05:50PM 37.7414 -109.5744 65° Northeast 505 581 39,000  Level Denver Center
05:51PM 37.7986 -109.4203 65° Northeast 506 582 39,000  Level Denver Center
05:52PM 37.8650 -109.2386 65° Northeast 507 583 39,000  Level Denver Center
05:53PM 37.9228 -109.0819 65° Northeast 512 589 39,000  Level Denver Center
05:54PM 37.9894 -108.8994 65° Northeast 510 587 39,000  Level Denver Center
05:55PM 38.0458 -108.7444 65° Northeast 507 583 39,000  Level Denver Center
05:56PM 38.1064 -108.5708 66° East 520 598 39,000  Level Denver Center
05:57PM 38.1725 -108.3867 65° Northeast 517 595 39,000  Level Denver Center
05:58PM 38.2292 -108.2283 65° Northeast 514 592 39,000  Level Denver Center
05:59PM 38.2961 -108.0394 66° East 522 601 39,000  Level Denver Center
06:00PM 38.3622 -107.8492 66° East 527 606 39,000  Level Denver Center
06:01PM 38.4186 -107.6894 66° East 522 601 39,000  Level Denver Center
06:02PM 38.4931 -107.5044 63° Northeast 527 606 39,000  Level Denver Center
06:03PM 38.5619 -107.3497 60° Northeast 523 602 39,000  Level Denver Center
06:04PM 38.6286 -107.1972 61° Northeast 517 595 39,000 -480 Level Denver Center
06:05PM 38.7028 -107.0336 60° Northeast 518 596 38,100 -960 Descending Denver Center
06:06PM 38.7731 -106.8742 60° Northeast 517 595 37,100 -1,020 Descending Denver Center
06:08PM 38.8614 -106.6794 60° Northeast 526 605 36,000 -1,560 Descending Denver Center
06:09PM 38.9297 -106.5281 60° Northeast 526 605 33,900 -2,520 Descending Denver Center
06:10PM 39.0122 -106.3450 60° Northeast 531 611 30,800 -2,760 Descending Denver Center
06:11PM 39.0808 -106.1903 60° Northeast 525 604 28,300 -2,520 Descending Denver Center
06:12PM 39.1561 -106.0236 60° Northeast 507 583 25,700 -2,400 Descending Denver Center
06:13PM 39.2225 -105.8706 61° Northeast 490 564 23,400 -2,280 Descending Denver Center
06:14PM 39.2867 -105.7278 60° Northeast 459 528 21,100 -2,280 Descending Denver Center
06:15PM 39.3544 -105.5703 61° Northeast 431 496 18,700 -1,560 Descending Denver Center
06:16PM 39.3867 -105.4458 71° East 390 449 17,900 -900 Descending Denver Center
06:17PM 39.3806 -105.3081 93° East 360 414 16,900 -1,560 Descending Denver Center
06:18PM 39.3772 -105.1811 92° East 354 407 14,700 -1,500 Descending Denver Center
06:19PM 39.3750 -105.0461 91° East 352 405 13,900 -600 Descending Denver Center
06:20PM 39.3756 -104.9394 90° East 307 353 13,500 -720 Descending Denver Center
06:21PM 39.3736 -104.8375 91° East 273 314 12,500 -780 Descending Denver Center
06:22PM 39.4006 -104.7581 66° East 259 298 12,000 -420 Descending Denver Center
06:23PM 39.4656 -104.7114 29° Northeast 248 285 11,700 -540 Descending Denver Center
06:24PM 39.5264 -104.6708 27° Northeast 246 283 11,000 -900 Descending Denver Center
06:25PM 39.5936 -104.6636 North 242 278 9,900 -1,200 Descending Denver Center
06:26PM 39.6667 -104.6628 North 245 282 8,600 -1,200 Descending Denver Center
06:27PM 39.7261 -104.6617 North 221 254 7,500 -1,020 Descending Denver Center
06:28PM 39.7753 -104.6619 360° North 170 196 6,500 -900 Descending Denver Center
06:29PM 39.8156 -104.6606 North 147 169 5,700 -540 Descending Denver Center
06:30PM 39.8500 -104.6617 359° North 133 153 5,400 -300 Descending Denver Center
06:32PM 39.8617 -104.6732 323° Northwest  Level Estimated
06:39PM 39.8617 -104.6732 142° Southeast  Level Estimated
06:40PM 39.8617 -104.6732 142° Southeast  Level Estimated